Kezdőlap
METAR-TAF:

METAR-TAF

Repülőterek :

Kemerovo, Oroszország

földrajzi szélesség: 55-19-48N, földrajzi hosszúság: 086-04-48E, magasság: 260 m

Jelenlegi meteorológiai megfigyelések

A jelentés 37 perccel ezelõtt készült, 01:30 UTC
Északi szél 6 kt
Hőmérséklet 22°C
Páratartalom 65%
Légköri nyomás 1007 hPa
Látótávolság 10 km, vagy több
felhőtlen 1500 m magasságban, és nincs gomolyfelhõ

METAR: UNEE 140130Z 36003MPS CAVOK 22/15 Q1007 R23/CLRD60 NOSIG RMK QFE732

Idő: 09:07 (02:07 UTC)

Előrejelzés

A jelentés 3 órával és 7 perccel ezelõtt készült, 23:00 UTC
Az előrejelzés 14-én 00 óra UTC és 14-én 24 óra UTC között érvényes
Északkeleti szél 6 kt széllökések: 16 kt
Látótávolság: 8000 m
Szórványos felhőzet 4000 lábon, Cumulonimbus.

TAF: UNEE 132300Z 1400/1424 05003G08MPS 8000 SCT040CB TX30/1409Z TN17/1423Z

Meteorológiai megfigyelések és előrejelzések több, mint 4000 repülőtéren (METAR és TAF jelentéseket).

A térképen piros és sárga pontok jelzik az elérhető meteorológiai állomásokat.

Mozgassa az egeret a pont fölött, hogy megjelenjen az állomás neve.

Azután kattintson az időjárási megfigyelések és előrejelzések megtekintéséhez.

A térkép megváltoztatása: kattintson a fekete keresztel jelölt zöld gombra ráközelítéshez, a vonallal jelölt zöld gombra távolításhoz, vagy a zöld nyilakra a szomszédos térképek eléréséhez.


METAR-TAF: